sensor_id;sensor_type;location;lat;lon;timestamp;P1;durP1;ratioP1;P2;durP2;ratioP2
5167;SDS011;2603;48.918;8.980;2022-10-20T00:01:10;24.13;;;12.40;;
5167;SDS011;2603;48.918;8.980;2022-10-20T00:03:36;27.00;;;13.93;;
5167;SDS011;2603;48.918;8.980;2022-10-20T00:06:07;24.40;;;12.20;;
5167;SDS011;2603;48.918;8.980;2022-10-20T00:08:35;26.90;;;12.57;;
5167;SDS011;2603;48.918;8.980;2022-10-20T00:11:02;23.73;;;13.90;;
5167;SDS011;2603;48.918;8.980;2022-10-20T00:13:28;24.77;;;12.40;;
5167;SDS011;2603;48.918;8.980;2022-10-20T00:15:57;23.90;;;12.00;;
5167;SDS011;2603;48.918;8.980;2022-10-20T00:18:24;25.60;;;12.00;;
5167;SDS011;2603;48.918;8.980;2022-10-20T00:20:51;30.60;;;13.70;;
5167;SDS011;2603;48.918;8.980;2022-10-20T00:23:18;18.83;;;11.40;;
5167;SDS011;2603;48.918;8.980;2022-10-20T00:25:44;34.87;;;12.10;;
5167;SDS011;2603;48.918;8.980;2022-10-20T00:28:11;23.60;;;12.23;;
5167;SDS011;2603;48.918;8.980;2022-10-20T00:30:38;21.80;;;12.40;;
5167;SDS011;2603;48.918;8.980;2022-10-20T00:33:06;23.13;;;12.13;;
5167;SDS011;2603;48.918;8.980;2022-10-20T00:35:33;21.67;;;11.93;;
5167;SDS011;2603;48.918;8.980;2022-10-20T00:38:03;19.20;;;11.80;;
5167;SDS011;2603;48.918;8.980;2022-10-20T00:40:29;23.40;;;12.83;;
5167;SDS011;2603;48.918;8.980;2022-10-20T00:42:56;20.60;;;11.13;;
5167;SDS011;2603;48.918;8.980;2022-10-20T00:45:22;24.23;;;11.80;;
5167;SDS011;2603;48.918;8.980;2022-10-20T00:47:50;22.40;;;10.97;;
5167;SDS011;2603;48.918;8.980;2022-10-20T00:50:20;26.40;;;12.10;;
5167;SDS011;2603;48.918;8.980;2022-10-20T00:52:48;27.13;;;11.57;;
5167;SDS011;2603;48.918;8.980;2022-10-20T00:55:16;33.67;;;11.60;;
5167;SDS011;2603;48.918;8.980;2022-10-20T00:57:45;17.93;;;11.33;;
5167;SDS011;2603;48.918;8.980;2022-10-20T01:00:15;20.90;;;11.30;;
5167;SDS011;2603;48.918;8.980;2022-10-20T01:02:42;19.40;;;10.70;;
5167;SDS011;2603;48.918;8.980;2022-10-20T01:05:09;19.50;;;11.37;;
5167;SDS011;2603;48.918;8.980;2022-10-20T01:07:37;29.80;;;11.67;;
5167;SDS011;2603;48.918;8.980;2022-10-20T01:10:04;23.30;;;10.40;;
5167;SDS011;2603;48.918;8.980;2022-10-20T01:12:34;21.90;;;12.70;;
5167;SDS011;2603;48.918;8.980;2022-10-20T01:15:06;17.50;;;10.93;;
5167;SDS011;2603;48.918;8.980;2022-10-20T01:17:39;23.57;;;11.57;;
5167;SDS011;2603;48.918;8.980;2022-10-20T01:20:13;21.90;;;10.93;;
5167;SDS011;2603;48.918;8.980;2022-10-20T01:23:00;21.67;;;10.53;;
5167;SDS011;2603;48.918;8.980;2022-10-20T01:26:00;31.47;;;14.97;;
5167;SDS011;2603;48.918;8.980;2022-10-20T01:28:39;21.60;;;12.23;;
5167;SDS011;2603;48.918;8.980;2022-10-20T01:31:10;29.60;;;12.30;;
5167;SDS011;2603;48.918;8.980;2022-10-20T01:33:40;23.80;;;11.67;;
5167;SDS011;2603;48.918;8.980;2022-10-20T01:36:10;32.83;;;12.03;;
5167;SDS011;2603;48.918;8.980;2022-10-20T01:38:38;22.20;;;11.17;;
5167;SDS011;2603;48.918;8.980;2022-10-20T01:41:07;42.97;;;12.73;;
5167;SDS011;2603;48.918;8.980;2022-10-20T01:43:35;25.03;;;12.33;;
5167;SDS011;2603;48.918;8.980;2022-10-20T01:46:05;18.73;;;10.97;;
5167;SDS011;2603;48.918;8.980;2022-10-20T01:48:32;19.03;;;10.83;;
5167;SDS011;2603;48.918;8.980;2022-10-20T01:51:02;24.07;;;11.40;;
5167;SDS011;2603;48.918;8.980;2022-10-20T01:53:29;21.10;;;11.80;;
5167;SDS011;2603;48.918;8.980;2022-10-20T01:55:56;21.27;;;10.80;;
5167;SDS011;2603;48.918;8.980;2022-10-20T01:58:31;17.27;;;10.53;;
5167;SDS011;2603;48.918;8.980;2022-10-20T02:01:11;19.73;;;10.33;;
5167;SDS011;2603;48.918;8.980;2022-10-20T02:03:43;21.80;;;12.70;;
5167;SDS011;2603;48.918;8.980;2022-10-20T02:06:17;25.90;;;12.47;;
5167;SDS011;2603;48.918;8.980;2022-10-20T02:08:50;24.13;;;11.80;;
5167;SDS011;2603;48.918;8.980;2022-10-20T02:11:20;23.37;;;11.97;;
5167;SDS011;2603;48.918;8.980;2022-10-20T02:13:49;24.00;;;12.97;;
5167;SDS011;2603;48.918;8.980;2022-10-20T02:16:17;28.30;;;12.53;;
5167;SDS011;2603;48.918;8.980;2022-10-20T02:18:45;27.17;;;12.43;;
5167;SDS011;2603;48.918;8.980;2022-10-20T02:21:12;23.83;;;12.23;;
5167;SDS011;2603;48.918;8.980;2022-10-20T02:23:39;26.27;;;14.27;;
5167;SDS011;2603;48.918;8.980;2022-10-20T02:26:08;22.97;;;12.33;;
5167;SDS011;2603;48.918;8.980;2022-10-20T02:28:39;24.40;;;13.30;;
5167;SDS011;2603;48.918;8.980;2022-10-20T02:31:10;27.47;;;13.00;;
5167;SDS011;2603;48.918;8.980;2022-10-20T02:33:36;29.43;;;13.90;;
5167;SDS011;2603;48.918;8.980;2022-10-20T02:36:03;23.10;;;13.50;;
5167;SDS011;2603;48.918;8.980;2022-10-20T02:38:31;24.83;;;13.53;;
5167;SDS011;2603;48.918;8.980;2022-10-20T02:40:57;33.00;;;18.00;;
5167;SDS011;2603;48.918;8.980;2022-10-20T02:43:24;22.40;;;13.70;;
5167;SDS011;2603;48.918;8.980;2022-10-20T02:45:50;25.27;;;13.77;;
5167;SDS011;2603;48.918;8.980;2022-10-20T02:48:18;28.50;;;12.67;;
5167;SDS011;2603;48.918;8.980;2022-10-20T02:50:45;26.70;;;13.80;;
5167;SDS011;2603;48.918;8.980;2022-10-20T02:53:11;32.10;;;13.13;;
5167;SDS011;2603;48.918;8.980;2022-10-20T02:55:38;24.50;;;11.17;;
5167;SDS011;2603;48.918;8.980;2022-10-20T02:58:04;22.63;;;11.00;;
5167;SDS011;2603;48.918;8.980;2022-10-20T03:00:31;28.43;;;13.00;;
5167;SDS011;2603;48.918;8.980;2022-10-20T03:02:57;23.20;;;11.63;;
5167;SDS011;2603;48.918;8.980;2022-10-20T03:05:25;25.03;;;11.50;;
5167;SDS011;2603;48.918;8.980;2022-10-20T03:07:52;23.47;;;12.17;;
5167;SDS011;2603;48.918;8.980;2022-10-20T03:10:18;21.20;;;11.97;;
5167;SDS011;2603;48.918;8.980;2022-10-20T03:12:45;25.13;;;12.40;;
5167;SDS011;2603;48.918;8.980;2022-10-20T03:15:13;18.20;;;11.10;;
5167;SDS011;2603;48.918;8.980;2022-10-20T03:17:40;25.57;;;12.97;;
5167;SDS011;2603;48.918;8.980;2022-10-20T03:20:07;19.10;;;11.70;;
5167;SDS011;2603;48.918;8.980;2022-10-20T03:22:35;25.53;;;11.90;;
5167;SDS011;2603;48.918;8.980;2022-10-20T03:25:02;22.40;;;12.37;;
5167;SDS011;2603;48.918;8.980;2022-10-20T03:27:29;23.00;;;13.10;;
5167;SDS011;2603;48.918;8.980;2022-10-20T03:29:55;25.90;;;13.17;;
5167;SDS011;2603;48.918;8.980;2022-10-20T03:32:22;26.97;;;12.13;;
5167;SDS011;2603;48.918;8.980;2022-10-20T03:34:48;23.93;;;12.90;;
5167;SDS011;2603;48.918;8.980;2022-10-20T03:37:15;27.63;;;12.70;;
5167;SDS011;2603;48.918;8.980;2022-10-20T03:39:42;20.37;;;11.30;;
5167;SDS011;2603;48.918;8.980;2022-10-20T03:42:09;21.47;;;12.63;;
5167;SDS011;2603;48.918;8.980;2022-10-20T03:44:35;22.03;;;11.37;;
5167;SDS011;2603;48.918;8.980;2022-10-20T03:47:02;23.30;;;13.40;;
5167;SDS011;2603;48.918;8.980;2022-10-20T03:49:29;26.23;;;13.50;;
5167;SDS011;2603;48.918;8.980;2022-10-20T03:51:57;23.20;;;13.27;;
5167;SDS011;2603;48.918;8.980;2022-10-20T03:54:24;24.97;;;13.80;;
5167;SDS011;2603;48.918;8.980;2022-10-20T03:56:52;21.60;;;11.70;;
5167;SDS011;2603;48.918;8.980;2022-10-20T03:59:18;23.50;;;13.33;;
5167;SDS011;2603;48.918;8.980;2022-10-20T04:01:45;24.17;;;13.07;;
5167;SDS011;2603;48.918;8.980;2022-10-20T04:04:11;32.03;;;13.57;;
5167;SDS011;2603;48.918;8.980;2022-10-20T04:06:38;30.10;;;13.77;;
5167;SDS011;2603;48.918;8.980;2022-10-20T04:09:05;22.77;;;11.90;;
5167;SDS011;2603;48.918;8.980;2022-10-20T04:11:31;23.20;;;13.13;;
5167;SDS011;2603;48.918;8.980;2022-10-20T04:13:59;22.30;;;13.10;;
5167;SDS011;2603;48.918;8.980;2022-10-20T04:16:26;25.17;;;13.37;;
5167;SDS011;2603;48.918;8.980;2022-10-20T04:18:53;20.47;;;12.13;;
5167;SDS011;2603;48.918;8.980;2022-10-20T04:21:19;21.60;;;11.80;;
5167;SDS011;2603;48.918;8.980;2022-10-20T04:23:46;26.13;;;12.40;;
5167;SDS011;2603;48.918;8.980;2022-10-20T04:26:14;19.87;;;11.23;;
5167;SDS011;2603;48.918;8.980;2022-10-20T04:28:41;19.00;;;11.77;;
5167;SDS011;2603;48.918;8.980;2022-10-20T04:31:09;23.33;;;12.07;;
5167;SDS011;2603;48.918;8.980;2022-10-20T04:33:36;22.83;;;11.40;;
5167;SDS011;2603;48.918;8.980;2022-10-20T04:36:03;22.40;;;11.53;;
5167;SDS011;2603;48.918;8.980;2022-10-20T04:38:31;20.90;;;11.00;;
5167;SDS011;2603;48.918;8.980;2022-10-20T04:41:00;21.10;;;12.63;;
5167;SDS011;2603;48.918;8.980;2022-10-20T04:43:28;21.20;;;12.60;;
5167;SDS011;2603;48.918;8.980;2022-10-20T04:45:58;22.43;;;12.80;;
5167;SDS011;2603;48.918;8.980;2022-10-20T04:48:26;18.80;;;10.83;;
5167;SDS011;2603;48.918;8.980;2022-10-20T04:50:58;24.77;;;12.17;;
5167;SDS011;2603;48.918;8.980;2022-10-20T04:53:25;22.80;;;11.67;;
5167;SDS011;2603;48.918;8.980;2022-10-20T04:55:55;25.63;;;11.83;;
5167;SDS011;2603;48.918;8.980;2022-10-20T04:58:21;17.20;;;10.30;;
5167;SDS011;2603;48.918;8.980;2022-10-20T05:00:48;24.97;;;11.90;;
5167;SDS011;2603;48.918;8.980;2022-10-20T05:03:14;24.60;;;11.77;;
5167;SDS011;2603;48.918;8.980;2022-10-20T05:05:44;19.10;;;11.07;;
5167;SDS011;2603;48.918;8.980;2022-10-20T05:08:10;21.03;;;11.20;;
5167;SDS011;2603;48.918;8.980;2022-10-20T05:10:37;20.07;;;10.90;;
5167;SDS011;2603;48.918;8.980;2022-10-20T05:13:03;17.00;;;11.40;;
5167;SDS011;2603;48.918;8.980;2022-10-20T05:15:30;18.73;;;11.30;;
5167;SDS011;2603;48.918;8.980;2022-10-20T05:17:56;17.47;;;10.53;;
5167;SDS011;2603;48.918;8.980;2022-10-20T05:20:23;18.23;;;11.07;;
5167;SDS011;2603;48.918;8.980;2022-10-20T05:22:51;23.83;;;11.53;;
5167;SDS011;2603;48.918;8.980;2022-10-20T05:25:17;22.33;;;11.97;;
5167;SDS011;2603;48.918;8.980;2022-10-20T05:27:44;24.53;;;11.20;;
5167;SDS011;2603;48.918;8.980;2022-10-20T05:30:10;18.20;;;10.30;;
5167;SDS011;2603;48.918;8.980;2022-10-20T05:32:37;24.93;;;11.47;;
5167;SDS011;2603;48.918;8.980;2022-10-20T05:35:06;20.60;;;11.00;;
5167;SDS011;2603;48.918;8.980;2022-10-20T05:37:33;23.83;;;11.33;;
5167;SDS011;2603;48.918;8.980;2022-10-20T05:40:00;20.53;;;11.93;;
5167;SDS011;2603;48.918;8.980;2022-10-20T05:42:28;34.43;;;13.10;;
5167;SDS011;2603;48.918;8.980;2022-10-20T05:44:54;25.97;;;12.77;;
5167;SDS011;2603;48.918;8.980;2022-10-20T05:47:21;33.80;;;16.00;;
5167;SDS011;2603;48.918;8.980;2022-10-20T05:49:47;28.80;;;15.20;;
5167;SDS011;2603;48.918;8.980;2022-10-20T05:52:14;34.83;;;14.40;;
5167;SDS011;2603;48.918;8.980;2022-10-20T05:54:40;30.77;;;14.80;;
5167;SDS011;2603;48.918;8.980;2022-10-20T05:57:08;34.67;;;16.30;;
5167;SDS011;2603;48.918;8.980;2022-10-20T05:59:35;30.90;;;16.17;;
5167;SDS011;2603;48.918;8.980;2022-10-20T06:02:01;29.40;;;15.57;;
5167;SDS011;2603;48.918;8.980;2022-10-20T06:04:29;36.07;;;15.47;;
5167;SDS011;2603;48.918;8.980;2022-10-20T06:06:55;31.57;;;16.60;;
5167;SDS011;2603;48.918;8.980;2022-10-20T06:09:22;37.07;;;18.43;;
5167;SDS011;2603;48.918;8.980;2022-10-20T06:11:49;32.93;;;16.77;;
5167;SDS011;2603;48.918;8.980;2022-10-20T06:14:18;37.40;;;14.73;;
5167;SDS011;2603;48.918;8.980;2022-10-20T06:16:48;31.20;;;13.30;;
5167;SDS011;2603;48.918;8.980;2022-10-20T06:19:15;28.47;;;14.50;;
5167;SDS011;2603;48.918;8.980;2022-10-20T06:21:42;33.23;;;14.17;;
5167;SDS011;2603;48.918;8.980;2022-10-20T06:24:09;28.33;;;13.50;;
5167;SDS011;2603;48.918;8.980;2022-10-20T06:26:36;30.50;;;13.80;;
5167;SDS011;2603;48.918;8.980;2022-10-20T06:29:04;31.37;;;15.00;;
5167;SDS011;2603;48.918;8.980;2022-10-20T06:31:33;30.13;;;14.93;;
5167;SDS011;2603;48.918;8.980;2022-10-20T06:34:03;33.37;;;14.60;;
5167;SDS011;2603;48.918;8.980;2022-10-20T06:36:30;30.90;;;15.13;;
5167;SDS011;2603;48.918;8.980;2022-10-20T06:38:59;25.60;;;13.83;;
5167;SDS011;2603;48.918;8.980;2022-10-20T06:41:26;25.80;;;13.50;;
5167;SDS011;2603;48.918;8.980;2022-10-20T06:43:53;24.17;;;12.60;;
5167;SDS011;2603;48.918;8.980;2022-10-20T06:46:23;31.63;;;13.43;;
5167;SDS011;2603;48.918;8.980;2022-10-20T06:48:51;30.73;;;12.57;;
5167;SDS011;2603;48.918;8.980;2022-10-20T06:51:18;27.10;;;13.13;;
5167;SDS011;2603;48.918;8.980;2022-10-20T06:53:46;26.57;;;12.90;;
5167;SDS011;2603;48.918;8.980;2022-10-20T06:56:13;27.40;;;13.20;;
5167;SDS011;2603;48.918;8.980;2022-10-20T06:58:41;27.23;;;13.27;;
5167;SDS011;2603;48.918;8.980;2022-10-20T07:01:10;24.40;;;12.57;;
5167;SDS011;2603;48.918;8.980;2022-10-20T07:03:38;26.30;;;11.87;;
5167;SDS011;2603;48.918;8.980;2022-10-20T07:06:07;32.07;;;12.33;;
5167;SDS011;2603;48.918;8.980;2022-10-20T07:08:34;27.90;;;12.33;;
5167;SDS011;2603;48.918;8.980;2022-10-20T07:11:02;23.90;;;12.87;;
5167;SDS011;2603;48.918;8.980;2022-10-20T07:13:30;22.67;;;11.83;;
5167;SDS011;2603;48.918;8.980;2022-10-20T07:15:57;21.57;;;12.07;;
5167;SDS011;2603;48.918;8.980;2022-10-20T07:18:25;19.63;;;11.10;;
5167;SDS011;2603;48.918;8.980;2022-10-20T07:20:54;24.63;;;11.63;;
5167;SDS011;2603;48.918;8.980;2022-10-20T07:23:23;20.73;;;10.93;;
5167;SDS011;2603;48.918;8.980;2022-10-20T07:25:49;19.83;;;10.57;;
5167;SDS011;2603;48.918;8.980;2022-10-20T07:28:16;18.97;;;10.77;;
5167;SDS011;2603;48.918;8.980;2022-10-20T07:30:45;22.17;;;11.30;;
5167;SDS011;2603;48.918;8.980;2022-10-20T07:33:12;23.63;;;11.13;;
5167;SDS011;2603;48.918;8.980;2022-10-20T07:35:38;18.87;;;10.27;;
5167;SDS011;2603;48.918;8.980;2022-10-20T07:38:06;18.47;;;9.80;;
5167;SDS011;2603;48.918;8.980;2022-10-20T07:40:33;14.50;;;8.90;;
5167;SDS011;2603;48.918;8.980;2022-10-20T07:43:00;15.17;;;8.93;;
5167;SDS011;2603;48.918;8.980;2022-10-20T07:45:26;18.50;;;10.20;;
5167;SDS011;2603;48.918;8.980;2022-10-20T07:47:53;17.47;;;9.67;;
5167;SDS011;2603;48.918;8.980;2022-10-20T07:50:19;16.80;;;9.00;;
5167;SDS011;2603;48.918;8.980;2022-10-20T07:52:48;14.73;;;9.23;;
5167;SDS011;2603;48.918;8.980;2022-10-20T07:55:16;18.80;;;9.87;;
5167;SDS011;2603;48.918;8.980;2022-10-20T07:57:44;20.67;;;11.33;;
5167;SDS011;2603;48.918;8.980;2022-10-20T08:00:11;22.60;;;9.97;;
5167;SDS011;2603;48.918;8.980;2022-10-20T08:02:38;44.50;;;23.20;;
5167;SDS011;2603;48.918;8.980;2022-10-20T08:05:05;17.27;;;9.40;;
5167;SDS011;2603;48.918;8.980;2022-10-20T08:07:33;19.60;;;10.07;;
5167;SDS011;2603;48.918;8.980;2022-10-20T08:09:59;27.00;;;14.87;;
5167;SDS011;2603;48.918;8.980;2022-10-20T08:12:26;12.67;;;8.47;;
5167;SDS011;2603;48.918;8.980;2022-10-20T08:14:54;15.43;;;10.90;;
5167;SDS011;2603;48.918;8.980;2022-10-20T08:17:20;15.70;;;9.43;;
5167;SDS011;2603;48.918;8.980;2022-10-20T08:19:47;15.40;;;7.93;;
5167;SDS011;2603;48.918;8.980;2022-10-20T08:22:13;27.30;;;9.10;;
5167;SDS011;2603;48.918;8.980;2022-10-20T08:24:40;13.53;;;8.87;;
5167;SDS011;2603;48.918;8.980;2022-10-20T08:27:06;17.33;;;8.73;;
5167;SDS011;2603;48.918;8.980;2022-10-20T08:29:33;14.07;;;8.23;;
5167;SDS011;2603;48.918;8.980;2022-10-20T08:32:01;18.77;;;8.73;;
5167;SDS011;2603;48.918;8.980;2022-10-20T08:34:27;17.87;;;9.33;;
5167;SDS011;2603;48.918;8.980;2022-10-20T08:36:54;13.53;;;7.80;;
5167;SDS011;2603;48.918;8.980;2022-10-20T08:39:21;16.57;;;8.00;;
5167;SDS011;2603;48.918;8.980;2022-10-20T08:41:48;16.20;;;9.23;;
5167;SDS011;2603;48.918;8.980;2022-10-20T08:44:17;14.60;;;8.77;;
5167;SDS011;2603;48.918;8.980;2022-10-20T08:46:47;14.60;;;7.70;;
5167;SDS011;2603;48.918;8.980;2022-10-20T08:49:16;16.03;;;8.17;;
5167;SDS011;2603;48.918;8.980;2022-10-20T08:51:45;12.23;;;7.47;;
5167;SDS011;2603;48.918;8.980;2022-10-20T08:54:13;12.70;;;6.93;;
5167;SDS011;2603;48.918;8.980;2022-10-20T08:56:40;18.63;;;7.93;;
5167;SDS011;2603;48.918;8.980;2022-10-20T08:59:15;12.80;;;6.87;;
5167;SDS011;2603;48.918;8.980;2022-10-20T09:01:48;27.63;;;7.73;;
5167;SDS011;2603;48.918;8.980;2022-10-20T09:04:17;10.93;;;7.07;;
5167;SDS011;2603;48.918;8.980;2022-10-20T09:06:45;11.73;;;8.03;;
5167;SDS011;2603;48.918;8.980;2022-10-20T09:09:16;14.60;;;6.40;;
5167;SDS011;2603;48.918;8.980;2022-10-20T09:11:45;14.33;;;7.93;;
5167;SDS011;2603;48.918;8.980;2022-10-20T09:14:12;13.53;;;7.03;;
5167;SDS011;2603;48.918;8.980;2022-10-20T09:16:41;12.13;;;6.00;;
5167;SDS011;2603;48.918;8.980;2022-10-20T09:19:12;11.33;;;6.23;;
5167;SDS011;2603;48.918;8.980;2022-10-20T09:21:42;10.13;;;6.30;;
5167;SDS011;2603;48.918;8.980;2022-10-20T09:24:09;11.00;;;7.50;;
5167;SDS011;2603;48.918;8.980;2022-10-20T09:26:37;10.97;;;6.80;;
5167;SDS011;2603;48.918;8.980;2022-10-20T09:29:06;8.87;;;6.53;;
5167;SDS011;2603;48.918;8.980;2022-10-20T09:31:35;11.53;;;6.87;;
5167;SDS011;2603;48.918;8.980;2022-10-20T09:34:04;13.83;;;8.00;;
5167;SDS011;2603;48.918;8.980;2022-10-20T09:36:47;10.43;;;7.07;;
5167;SDS011;2603;48.918;8.980;2022-10-20T09:39:18;10.20;;;6.60;;
5167;SDS011;2603;48.918;8.980;2022-10-20T09:41:45;9.33;;;5.90;;
5167;SDS011;2603;48.918;8.980;2022-10-20T09:44:13;13.80;;;6.80;;
5167;SDS011;2603;48.918;8.980;2022-10-20T09:46:43;13.40;;;6.90;;
5167;SDS011;2603;48.918;8.980;2022-10-20T09:49:20;10.20;;;6.57;;
5167;SDS011;2603;48.918;8.980;2022-10-20T09:51:49;9.90;;;6.63;;
5167;SDS011;2603;48.918;8.980;2022-10-20T09:54:17;10.20;;;6.33;;
5167;SDS011;2603;48.918;8.980;2022-10-20T09:56:45;15.90;;;6.30;;
5167;SDS011;2603;48.918;8.980;2022-10-20T09:59:17;14.70;;;6.47;;
5167;SDS011;2603;48.918;8.980;2022-10-20T10:01:52;17.37;;;6.17;;
5167;SDS011;2603;48.918;8.980;2022-10-20T10:04:28;11.93;;;7.00;;
5167;SDS011;2603;48.918;8.980;2022-10-20T10:06:57;10.30;;;5.87;;
5167;SDS011;2603;48.918;8.980;2022-10-20T10:09:25;11.73;;;6.20;;
5167;SDS011;2603;48.918;8.980;2022-10-20T10:11:55;10.33;;;5.80;;
5167;SDS011;2603;48.918;8.980;2022-10-20T10:14:23;11.60;;;6.30;;
5167;SDS011;2603;48.918;8.980;2022-10-20T10:16:50;8.47;;;5.17;;
5167;SDS011;2603;48.918;8.980;2022-10-20T10:19:18;14.03;;;6.87;;
5167;SDS011;2603;48.918;8.980;2022-10-20T10:21:46;11.63;;;6.17;;
5167;SDS011;2603;48.918;8.980;2022-10-20T10:27:17;9.03;;;5.40;;
5167;SDS011;2603;48.918;8.980;2022-10-20T10:29:45;13.57;;;6.57;;
5167;SDS011;2603;48.918;8.980;2022-10-20T10:32:13;11.30;;;6.23;;
5167;SDS011;2603;48.918;8.980;2022-10-20T10:34:48;9.50;;;6.60;;
5167;SDS011;2603;48.918;8.980;2022-10-20T10:37:21;10.90;;;6.20;;
5167;SDS011;2603;48.918;8.980;2022-10-20T10:39:49;13.43;;;6.30;;
5167;SDS011;2603;48.918;8.980;2022-10-20T10:42:19;10.73;;;6.47;;
5167;SDS011;2603;48.918;8.980;2022-10-20T10:45:02;7.80;;;5.67;;
5167;SDS011;2603;48.918;8.980;2022-10-20T10:47:42;10.50;;;5.80;;
5167;SDS011;2603;48.918;8.980;2022-10-20T10:50:23;8.80;;;6.17;;
5167;SDS011;2603;48.918;8.980;2022-10-20T10:52:56;8.30;;;5.70;;
5167;SDS011;2603;48.918;8.980;2022-10-20T10:55:30;10.97;;;6.40;;
5167;SDS011;2603;48.918;8.980;2022-10-20T10:58:05;12.60;;;6.70;;
5167;SDS011;2603;48.918;8.980;2022-10-20T11:00:37;11.10;;;6.27;;
5167;SDS011;2603;48.918;8.980;2022-10-20T11:03:21;15.40;;;5.90;;
5167;SDS011;2603;48.918;8.980;2022-10-20T11:06:00;12.53;;;7.17;;
5167;SDS011;2603;48.918;8.980;2022-10-20T11:08:42;14.90;;;6.20;;
5167;SDS011;2603;48.918;8.980;2022-10-20T11:11:36;16.60;;;6.57;;
5167;SDS011;2603;48.918;8.980;2022-10-20T11:14:14;12.33;;;5.57;;
5167;SDS011;2603;48.918;8.980;2022-10-20T11:16:47;8.90;;;6.40;;
5167;SDS011;2603;48.918;8.980;2022-10-20T11:19:25;10.07;;;5.50;;
5167;SDS011;2603;48.918;8.980;2022-10-20T11:22:10;10.97;;;5.60;;
5167;SDS011;2603;48.918;8.980;2022-10-20T11:24:45;16.43;;;6.20;;
5167;SDS011;2603;48.918;8.980;2022-10-20T11:27:17;9.50;;;5.87;;
5167;SDS011;2603;48.918;8.980;2022-10-20T11:29:45;8.23;;;4.87;;
5167;SDS011;2603;48.918;8.980;2022-10-20T11:32:18;9.73;;;5.10;;
5167;SDS011;2603;48.918;8.980;2022-10-20T11:34:51;10.13;;;6.60;;
5167;SDS011;2603;48.918;8.980;2022-10-20T11:37:23;12.23;;;6.10;;
5167;SDS011;2603;48.918;8.980;2022-10-20T11:39:53;10.37;;;5.33;;
5167;SDS011;2603;48.918;8.980;2022-10-20T11:42:28;15.83;;;5.73;;
5167;SDS011;2603;48.918;8.980;2022-10-20T11:44:58;14.40;;;6.23;;
5167;SDS011;2603;48.918;8.980;2022-10-20T11:47:29;7.97;;;5.40;;
5167;SDS011;2603;48.918;8.980;2022-10-20T11:49:57;8.77;;;5.87;;
5167;SDS011;2603;48.918;8.980;2022-10-20T11:52:37;12.80;;;5.03;;
5167;SDS011;2603;48.918;8.980;2022-10-20T11:55:25;7.90;;;5.20;;
5167;SDS011;2603;48.918;8.980;2022-10-20T11:58:26;22.43;;;5.30;;
5167;SDS011;2603;48.918;8.980;2022-10-20T12:01:07;14.40;;;4.87;;
5167;SDS011;2603;48.918;8.980;2022-10-20T12:03:52;9.93;;;4.70;;
5167;SDS011;2603;48.918;8.980;2022-10-20T12:06:34;9.70;;;4.73;;
5167;SDS011;2603;48.918;8.980;2022-10-20T12:12:13;8.60;;;4.20;;
5167;SDS011;2603;48.918;8.980;2022-10-20T12:14:47;5.50;;;3.90;;
5167;SDS011;2603;48.918;8.980;2022-10-20T12:17:19;10.23;;;3.63;;
5167;SDS011;2603;48.918;8.980;2022-10-20T12:19:53;16.07;;;5.37;;
5167;SDS011;2603;48.918;8.980;2022-10-20T12:22:58;13.63;;;6.87;;
5167;SDS011;2603;48.918;8.980;2022-10-20T12:25:33;10.90;;;4.10;;
5167;SDS011;2603;48.918;8.980;2022-10-20T12:31:08;8.10;;;4.23;;
5167;SDS011;2603;48.918;8.980;2022-10-20T12:33:39;11.73;;;4.97;;
5167;SDS011;2603;48.918;8.980;2022-10-20T12:39:06;6.37;;;3.80;;
5167;SDS011;2603;48.918;8.980;2022-10-20T12:41:42;7.77;;;3.83;;
5167;SDS011;2603;48.918;8.980;2022-10-20T12:44:14;8.93;;;3.77;;
5167;SDS011;2603;48.918;8.980;2022-10-20T12:46:50;7.10;;;3.60;;
5167;SDS011;2603;48.918;8.980;2022-10-20T12:49:21;8.27;;;4.47;;
5167;SDS011;2603;48.918;8.980;2022-10-20T12:52:14;8.47;;;4.93;;
5167;SDS011;2603;48.918;8.980;2022-10-20T12:54:43;14.77;;;5.23;;
5167;SDS011;2603;48.918;8.980;2022-10-20T12:57:23;12.70;;;6.80;;
5167;SDS011;2603;48.918;8.980;2022-10-20T12:59:52;11.30;;;4.80;;
5167;SDS011;2603;48.918;8.980;2022-10-20T13:05:38;13.47;;;4.80;;
5167;SDS011;2603;48.918;8.980;2022-10-20T13:13:57;12.13;;;4.13;;
5167;SDS011;2603;48.918;8.980;2022-10-20T13:16:25;6.30;;;4.17;;
5167;SDS011;2603;48.918;8.980;2022-10-20T13:18:55;6.07;;;4.20;;
5167;SDS011;2603;48.918;8.980;2022-10-20T13:21:30;7.17;;;5.03;;
5167;SDS011;2603;48.918;8.980;2022-10-20T13:24:09;7.67;;;4.70;;
5167;SDS011;2603;48.918;8.980;2022-10-20T13:26:44;10.13;;;5.50;;
5167;SDS011;2603;48.918;8.980;2022-10-20T13:29:16;7.27;;;4.40;;
5167;SDS011;2603;48.918;8.980;2022-10-20T13:31:57;8.60;;;4.20;;
5167;SDS011;2603;48.918;8.980;2022-10-20T13:34:34;5.73;;;3.80;;
5167;SDS011;2603;48.918;8.980;2022-10-20T13:37:06;10.53;;;5.20;;
5167;SDS011;2603;48.918;8.980;2022-10-20T13:39:43;8.23;;;4.27;;
5167;SDS011;2603;48.918;8.980;2022-10-20T13:42:24;11.43;;;5.30;;
5167;SDS011;2603;48.918;8.980;2022-10-20T13:44:59;16.73;;;4.40;;
5167;SDS011;2603;48.918;8.980;2022-10-20T13:50:19;10.30;;;4.23;;
5167;SDS011;2603;48.918;8.980;2022-10-20T13:52:48;9.40;;;4.50;;
5167;SDS011;2603;48.918;8.980;2022-10-20T13:55:18;7.60;;;4.90;;
5167;SDS011;2603;48.918;8.980;2022-10-20T13:57:47;7.60;;;4.70;;
5167;SDS011;2603;48.918;8.980;2022-10-20T14:00:17;9.10;;;4.70;;
5167;SDS011;2603;48.918;8.980;2022-10-20T14:02:53;6.90;;;4.40;;
5167;SDS011;2603;48.918;8.980;2022-10-20T14:05:23;6.63;;;3.97;;
5167;SDS011;2603;48.918;8.980;2022-10-20T14:07:51;16.57;;;5.37;;
5167;SDS011;2603;48.918;8.980;2022-10-20T14:13:03;5.70;;;3.70;;
5167;SDS011;2603;48.918;8.980;2022-10-20T14:15:33;8.97;;;4.90;;
5167;SDS011;2603;48.918;8.980;2022-10-20T14:18:03;6.90;;;4.00;;
5167;SDS011;2603;48.918;8.980;2022-10-20T14:20:33;26.50;;;5.17;;
5167;SDS011;2603;48.918;8.980;2022-10-20T14:23:02;7.57;;;3.67;;
5167;SDS011;2603;48.918;8.980;2022-10-20T14:25:29;7.40;;;3.83;;
5167;SDS011;2603;48.918;8.980;2022-10-20T14:27:56;7.43;;;4.40;;
5167;SDS011;2603;48.918;8.980;2022-10-20T14:30:24;7.73;;;4.07;;
5167;SDS011;2603;48.918;8.980;2022-10-20T14:32:51;5.23;;;3.70;;
5167;SDS011;2603;48.918;8.980;2022-10-20T14:35:22;10.83;;;5.27;;
5167;SDS011;2603;48.918;8.980;2022-10-20T14:37:56;9.20;;;3.90;;
5167;SDS011;2603;48.918;8.980;2022-10-20T14:40:25;9.37;;;4.30;;
5167;SDS011;2603;48.918;8.980;2022-10-20T14:42:55;11.63;;;4.03;;
5167;SDS011;2603;48.918;8.980;2022-10-20T14:45:23;5.20;;;3.53;;
5167;SDS011;2603;48.918;8.980;2022-10-20T14:47:51;6.37;;;4.30;;
5167;SDS011;2603;48.918;8.980;2022-10-20T14:50:23;7.17;;;4.27;;
5167;SDS011;2603;48.918;8.980;2022-10-20T14:52:51;11.70;;;4.57;;
5167;SDS011;2603;48.918;8.980;2022-10-20T14:55:32;7.40;;;3.60;;
5167;SDS011;2603;48.918;8.980;2022-10-20T14:58:01;9.30;;;4.50;;
5167;SDS011;2603;48.918;8.980;2022-10-20T15:00:29;9.10;;;4.53;;
5167;SDS011;2603;48.918;8.980;2022-10-20T15:03:00;9.80;;;5.10;;
5167;SDS011;2603;48.918;8.980;2022-10-20T15:05:40;11.40;;;6.10;;
5167;SDS011;2603;48.918;8.980;2022-10-20T15:08:09;9.67;;;5.67;;
5167;SDS011;2603;48.918;8.980;2022-10-20T15:10:45;13.23;;;5.30;;
5167;SDS011;2603;48.918;8.980;2022-10-20T15:13:19;10.17;;;5.70;;
5167;SDS011;2603;48.918;8.980;2022-10-20T15:15:46;10.73;;;5.30;;
5167;SDS011;2603;48.918;8.980;2022-10-20T15:18:13;13.57;;;6.20;;
5167;SDS011;2603;48.918;8.980;2022-10-20T15:20:42;9.13;;;5.10;;
5167;SDS011;2603;48.918;8.980;2022-10-20T15:23:10;10.63;;;4.60;;
5167;SDS011;2603;48.918;8.980;2022-10-20T15:25:40;11.30;;;4.80;;
5167;SDS011;2603;48.918;8.980;2022-10-20T15:28:19;8.17;;;4.50;;
5167;SDS011;2603;48.918;8.980;2022-10-20T15:30:52;8.50;;;4.27;;
5167;SDS011;2603;48.918;8.980;2022-10-20T15:33:19;13.40;;;5.73;;
5167;SDS011;2603;48.918;8.980;2022-10-20T15:35:46;14.40;;;8.00;;
5167;SDS011;2603;48.918;8.980;2022-10-20T15:38:13;17.00;;;8.43;;